tititudorancea.com
Station Historical Data
Daily Summary for April 12, 2018 Units:  Metric    English   Both
« Previous Day
Next Day »
Daily Weekly Monthly Yearly Custom
  High: Low: Average:
Temperature: -17.8 °C 10.8 °C 20.4 °C
Dew Point: -17.8 °C 4.3 °C 8.9 °C
Humidity: Humidity % 24 % 51 %
Wind Speed: 0 km/h 0 km/h 9.5 km/h
Wind Gust: 0 km/h - -
Wind:- - WNW
Pressure: 0 hPa 1002.6 hPa -
Precipitation: 0 mm    
Historical Graphs
 
 
Ararat weather Find more about Weather in Ararat, AU


 



 


Tabular Data for April 12, 2018
Time Temperature Dew Point Pressure Wind Wind Speed Wind Gust Humidity Rainfall Rate (Hourly)
-17.8 °C -17.8 °C 0 hPa Calm     Humidity % 0 mm
00:00 24.6 °C 8.5 °C 1006 hPa West 9.3 km/h 14.8 km/h 36 % 0 mm
00:05 24.6 °C 8.1 °C 1006 hPa WNW 6.6 km/h 11.1 km/h 35 % 0 mm
00:10 24.7 °C 8.2 °C 1006 hPa WNW 7.4 km/h 11.3 km/h 35 % 0 mm
00:13 24.6 °C 8.6 °C 1006 hPa WNW 6.1 km/h 9.3 km/h 36 % 0 mm
00:18 24.5 °C 8.4 °C 1006 hPa North 5.3 km/h 9.3 km/h 36 % 0 mm
00:23 24.3 °C 8.7 °C 1006 hPa North 6 km/h 9.3 km/h 37 % 0 mm
00:25 24.3 °C 8.7 °C 1005.6 hPa North 6.9 km/h 16.7 km/h 37 % 0 mm
00:30 24.2 °C 8.6 °C 1005.6 hPa WNW 4.3 km/h 7.4 km/h 37 % 0 mm
00:32 24.2 °C 8.6 °C 1005.6 hPa WNW 6.3 km/h 9.3 km/h 37 % 0 mm
00:37 24.1 °C 8.9 °C 1005.6 hPa WNW 5.5 km/h 7.4 km/h 38 % 0 mm
00:39 24.1 °C 8.4 °C 1005.6 hPa WNW 3.9 km/h 7.4 km/h 37 % 0 mm
00:41 24.1 °C 8.4 °C 1005.6 hPa WNW 5.3 km/h 7.4 km/h 37 % 0 mm
00:44 24.1 °C 8.4 °C 1005.3 hPa WNW 6.1 km/h 7.4 km/h 37 % 0 mm
00:47 24.1 °C 8.4 °C 1005.3 hPa North 4.7 km/h 5.6 km/h 37 % 0 mm
00:52 24.1 °C 8.1 °C 1005.3 hPa North 5.1 km/h 5.6 km/h 36 % 0 mm
00:57 24.1 °C 8.1 °C 1005.3 hPa WNW 3.5 km/h 5.6 km/h 36 % 0 mm
01:01 24.1 °C 7.6 °C 1005.3 hPa North 5.8 km/h 7.4 km/h 35 % 0 mm
01:06 24.1 °C 7.7 °C 1005.3 hPa WNW 6.4 km/h 7.4 km/h 35 % 0 mm
01:16 24.3 °C 7.4 °C 1005 hPa North 11.3 km/h 24.1 km/h 34 % 0 mm
01:24 25.6 °C 6.2 °C 1004.6 hPa North 8.2 km/h 11.1 km/h 29 % 0 mm
01:29 25.6 °C 6.2 °C 1005 hPa NNW 6.9 km/h 7.4 km/h 29 % 0 mm
01:36 25.3 °C 6.5 °C 1005 hPa North 6.8 km/h 11.1 km/h 30 % 0 mm
01:39 25.2 °C 6.4 °C 1004.6 hPa NNW 5.8 km/h 9.7 km/h 30 % 0 mm
01:44 25.2 °C 6.3 °C 1004.6 hPa North 4.7 km/h 7.4 km/h 30 % 0 mm
01:52 25.2 °C 5.9 °C 1004.6 hPa NNW 6.9 km/h 9.7 km/h 29 % 0 mm
01:57 25.3 °C 6 °C 1004.6 hPa NNW 5.1 km/h 9.3 km/h 29 % 0 mm
02:06 26.1 °C 5.6 °C 1004.6 hPa NW 8 km/h 11.3 km/h 27 % 0 mm
02:11 26.3 °C 5.3 °C 1004.6 hPa NW 9 km/h 11.1 km/h 26 % 0 mm
02:16 26.6 °C 5.5 °C 1004.6 hPa NW 9.3 km/h 18.5 km/h 26 % 0 mm
02:19 26.7 °C 5 °C 1004.3 hPa NNW 10.5 km/h 16.1 km/h 25 % 0 mm
02:24 26.9 °C 4.7 °C 1004.3 hPa North 16.1 km/h 24.1 km/h 24 % 0 mm
02:29 27.1 °C 4.8 °C 1004.3 hPa NNW 9.5 km/h 18.5 km/h 24 % 0 mm
02:41 26.8 °C 4.5 °C 1003.9 hPa North 11.4 km/h 18.5 km/h 24 % 0 mm
02:46 26.7 °C 4.4 °C 1003.6 hPa North 18.2 km/h 24.1 km/h 24 % 0 mm
02:48 26.7 °C 4.4 °C 1003.6 hPa North 9.5 km/h 18.5 km/h 24 % 0 mm
02:50 26.6 °C 4.4 °C 1003.6 hPa North 12.7 km/h 20.9 km/h 24 % 0 mm
02:52 26.6 °C 4.4 °C 1003.6 hPa North 13.5 km/h 20.4 km/h 24 % 0 mm
02:53 26.6 °C 4.3 °C 1003.6 hPa NNW 11.3 km/h 18.5 km/h 24 % 0 mm
02:54 26.6 °C 4.3 °C 1003.6 hPa North 10.6 km/h 16.7 km/h 24 % 0 mm
02:57 26.6 °C 4.3 °C 1003.6 hPa North 12.9 km/h 22.2 km/h 24 % 0 mm
02:58 26.6 °C 4.3 °C 1003.3 hPa North 11.4 km/h 18.5 km/h 24 % 0 mm
02:59 26.6 °C 4.3 °C 1003.3 hPa North 11.6 km/h 18.5 km/h 24 % 0 mm
03:04 26.6 °C 4.4 °C 1003.3 hPa NNW 11.6 km/h 17.7 km/h 24 % 0 mm
03:09 26.6 °C 4.4 °C 1003.3 hPa North 8.4 km/h 22.2 km/h 24 % 0 mm
03:12 26.5 °C 4.3 °C 1003.3 hPa NNW 13.4 km/h 22.2 km/h 24 % 0 mm
03:17 26.5 °C 4.3 °C 1002.9 hPa North 11.9 km/h 18.5 km/h 24 % 0 mm
03:22 26.3 °C 4.7 °C 1002.9 hPa NNW 9.5 km/h 22.5 km/h 25 % 0 mm
03:27 26.2 °C 4.6 °C 1002.9 hPa NW 10 km/h 16.7 km/h 25 % 0 mm
03:32 26 °C 5.6 °C 1002.9 hPa North 12.2 km/h 22.2 km/h 27 % 0 mm
03:36 25.8 °C 5.4 °C 1003.3 hPa North 16.3 km/h 22.2 km/h 27 % 0 mm
03:41 25.9 °C 5.5 °C 1003.6 hPa North 16.4 km/h 27.8 km/h 27 % 0 mm
03:44 26 °C 5 °C 1002.9 hPa NNW 13.4 km/h 20.4 km/h 26 % 0 mm
03:49 25.8 °C 5.4 °C 1003.3 hPa North 16.1 km/h 24.1 km/h 27 % 0 mm
03:53 25.8 °C 5.3 °C 1003.3 hPa NNW 10.6 km/h 16.7 km/h 27 % 0 mm
03:58 25.7 °C 5.3 °C 1003.3 hPa NW 14 km/h 22.5 km/h 27 % 0 mm
04:03 25.8 °C 5.3 °C 1002.9 hPa NNW 13.4 km/h 27.8 km/h 27 % 0 mm
04:07 25.7 °C 5.3 °C 1002.9 hPa NNW 11.7 km/h 18.5 km/h 27 % 0 mm
04:12 25.6 °C 5.2 °C 1002.9 hPa North 13.2 km/h 16.1 km/h 27 % 0 mm
04:17 25.7 °C 5.3 °C 1002.9 hPa NNW 10.9 km/h 18.5 km/h 27 % 0 mm
04:21 25.7 °C 4.8 °C 1002.6 hPa North 16.3 km/h 27.8 km/h 26 % 0 mm
04:22 25.8 °C 5.3 °C 1002.6 hPa North 11.6 km/h 18.5 km/h 27 % 0 mm
04:27 25.8 °C 4.8 °C 1002.6 hPa North 12.6 km/h 22.2 km/h 26 % 0 mm
04:31 25.8 °C 4.8 °C 1002.6 hPa NW 14.2 km/h 22.5 km/h 26 % 0 mm
04:36 26 °C 5 °C 1002.9 hPa NNW 14.3 km/h 22.2 km/h 26 % 0 mm
04:39 26 °C 5 °C 1002.9 hPa North 14.2 km/h 24.1 km/h 26 % 0 mm
04:43 25.9 °C 4.9 °C 1002.9 hPa North 14.2 km/h 20.4 km/h 26 % 0 mm
04:46 25.9 °C 4.9 °C 1002.9 hPa North 14.8 km/h 22.2 km/h 26 % 0 mm
04:51 25.9 °C 4.9 °C 1003.3 hPa NW 16.3 km/h 31.5 km/h 26 % 0 mm
04:56 25.9 °C 4.9 °C 1003.6 hPa NNW 17.7 km/h 33.3 km/h 26 % 0 mm
05:01 25.8 °C 4.8 °C 1003.9 hPa NW 7.7 km/h 14.5 km/h 26 % 0 mm
05:06 25.7 °C 5.3 °C 1003.9 hPa North 19.2 km/h 29.6 km/h 27 % 0 mm
05:12 25.7 °C 5.8 °C 1004.3 hPa NW 20.1 km/h 37 km/h 28 % 0 mm
05:17 25.4 °C 6.1 °C 1004.3 hPa North 18.3 km/h 29.6 km/h 29 % 0 mm
05:23 25.2 °C 6.8 °C 1004.6 hPa NW 24 km/h 24 km/h 31 % 0 mm
05:29 24.8 °C 7.4 °C 1004.6 hPa NW 16.6 km/h 29.6 km/h 33 % 0 mm
05:35 24.6 °C 8.1 °C 1005 hPa WNW 13 km/h 20.4 km/h 35 % 0 mm
05:40 24.4 °C 8.8 °C 1005 hPa North 13 km/h 22.5 km/h 37 % 0 mm
05:41 24.3 °C 8.7 °C 1005.3 hPa NW 14 km/h 22.2 km/h 37 % 0 mm
05:46 24.2 °C 8.6 °C 1005.3 hPa NW 15.4 km/h 20.4 km/h 37 % 0 mm
05:51 24.1 °C 8.9 °C 1005.3 hPa North 17.4 km/h 24.1 km/h 38 % 0 mm
05:54 24 °C 8.8 °C 1005.3 hPa NW 9.7 km/h 14.5 km/h 38 % 0 mm
05:59 23.9 °C 9.1 °C 1005.6 hPa WNW 13.8 km/h 18.5 km/h 39 % 0 mm
06:04 23.7 °C 9.3 °C 1005.6 hPa WNW 11.7 km/h 18.5 km/h 40 % 0 mm
06:06 23.7 °C 9.3 °C 1005.6 hPa WNW 9.2 km/h 11.1 km/h 40 % 0 mm
06:11 23.6 °C 9.9 °C 1005.6 hPa WNW 12.4 km/h 18.5 km/h 42 % 0 mm
06:16 23.4 °C 9.8 °C 1005.6 hPa WNW 11.7 km/h 13 km/h 42 % 0 mm
06:21 23.3 °C 10 °C 1006 hPa WNW 7.6 km/h 11.1 km/h 43 % 0 mm
06:24 23 °C 10.8 °C 1006 hPa North 15 km/h 22.2 km/h 46 % 0 mm
06:29 21.7 °C 11.4 °C 1006 hPa WSW 15.3 km/h 24.1 km/h 52 % 0 mm
06:31 21.3 °C 11.3 °C 1006 hPa SW 6.9 km/h 16.1 km/h 53 % 0 mm
06:36 20.9 °C 11.5 °C 1006 hPa WSW 9.8 km/h 12.9 km/h 55 % 0 mm
06:41 20.6 °C 11.5 °C 1006.3 hPa WSW 8 km/h 11.1 km/h 56 % 0 mm
06:46 20.4 °C 11.6 °C 1006.7 hPa WSW 7.6 km/h 13 km/h 57 % 0 mm
06:51 20.3 °C 11.6 °C 1006.7 hPa WSW 2.7 km/h 9.3 km/h 57 % 0 mm
06:56 20.2 °C 11.7 °C 1006.3 hPa WSW 3.5 km/h 5.6 km/h 58 % 0 mm
07:01 20.2 °C 11.6 °C 1006.3 hPa WSW 3.1 km/h 5.6 km/h 58 % 0 mm
07:11 20.1 °C 11.6 °C 1006.7 hPa WSW 1.4 km/h 3.7 km/h 58 % 0 mm
07:14 20 °C 11.7 °C 1006.7 hPa WSW 0.3 km/h 1.9 km/h 59 % 0 mm
07:16 20 °C 11.7 °C 1006.7 hPa WSW 0.8 km/h 1.9 km/h 59 % 0 mm
07:20 19.9 °C 11.7 °C 1006.3 hPa WSW 0.5 km/h 5.6 km/h 59 % 0 mm
07:25 19.8 °C 11.6 °C 1006.3 hPa WSW 1.9 km/h 3.7 km/h 59 % 0 mm
07:26 19.8 °C 11.8 °C 1006.3 hPa WSW 2.3 km/h 3.7 km/h 60 % 0 mm
07:31 19.6 °C 11.6 °C 1006.3 hPa WSW 2.3 km/h 3.7 km/h 60 % 0 mm
07:36 19.4 °C 11.7 °C 1006.3 hPa WSW 0.5 km/h 3.7 km/h 61 % 0 mm
07:41 19.3 °C 11.8 °C 1006.7 hPa WSW 0.8 km/h 3.7 km/h 62 % 0 mm
07:46 19.1 °C 11.9 °C 1007 hPa WSW 1.9 km/h 3.7 km/h 63 % 0 mm
07:51 18.9 °C 12 °C 1007 hPa Calm   1.9 km/h 64 % 0 mm
07:55 18.8 °C 12.1 °C 1006.7 hPa Calm     65 % 0 mm
07:56 18.8 °C 12.1 °C 1006.7 hPa North 1 km/h 1.9 km/h 65 % 0 mm
08:01 18.7 °C 12.2 °C 1007 hPa Calm     66 % 0 mm
08:02 18.6 °C 12.3 °C 1007.3 hPa Calm     67 % 0 mm
08:05 18.6 °C 12.3 °C 1007 hPa North 1.1 km/h 3.7 km/h 67 % 0 mm
08:10 18.5 °C 12.7 °C 1007.3 hPa WSW 0.8 km/h 3.2 km/h 69 % 0 mm
08:15 18.4 °C 13.1 °C 1007.3 hPa Calm     71 % 0 mm
08:17 18.3 °C 13 °C 1007.7 hPa WSW 2.7 km/h 3.7 km/h 71 % 0 mm
08:18 18.3 °C 13.2 °C 1007.7 hPa WSW 2.6 km/h 3.7 km/h 72 % 0 mm
08:22 18.1 °C 12.9 °C 1007.3 hPa WSW 3.7 km/h 7.4 km/h 72 % 0 mm
08:27 18.1 °C 12.7 °C 1007.7 hPa NW 11.6 km/h 22.5 km/h 71 % 0 mm
08:29 18.3 °C 12.8 °C 1007.7 hPa NW 7.7 km/h 13 km/h 70 % 0 mm
08:30 18.4 °C 12.8 °C 1007.3 hPa NW 7.9 km/h 13 km/h 70 % 0 mm
08:35 18.6 °C 13 °C 1007.3 hPa NW 8.4 km/h 13 km/h 70 % 0 mm
08:36 18.6 °C 13.1 °C 1007.7 hPa NNW 12.1 km/h 16.1 km/h 70 % 0 mm
08:38 18.6 °C 12.8 °C 1007.7 hPa NNW 8.4 km/h 14.8 km/h 69 % 0 mm
08:43 18.7 °C 12.4 °C 1007.7 hPa NW 18.5 km/h 18.5 km/h 67 % 0 mm
08:48 18.7 °C 12 °C 1007.7 hPa North 12.7 km/h 16.7 km/h 65 % 0 mm
08:51 18.7 °C 11.8 °C 1008 hPa NW 14 km/h 20.4 km/h 64 % 0 mm
08:53 18.7 °C 11.6 °C 1007.7 hPa NW 9.7 km/h 18.5 km/h 63 % 0 mm
08:57 18.7 °C 11.1 °C 1007.7 hPa WNW 7.9 km/h 20.4 km/h 61 % 0 mm
09:02 18.6 °C 11.2 °C 1008 hPa North 10.9 km/h 16.7 km/h 62 % 0 mm
09:07 18.6 °C 10.7 °C 1008 hPa North 14.3 km/h 18.5 km/h 60 % 0 mm
09:12 18.6 °C 10.7 °C 1008 hPa NNW 9.8 km/h 16.7 km/h 60 % 0 mm
09:15 18.6 °C 10.4 °C 1008 hPa NNW 11.4 km/h 18.5 km/h 59 % 0 mm
09:20 18.6 °C 10.4 °C 1008 hPa NW 13.2 km/h 18.5 km/h 59 % 0 mm
09:23 18.6 °C 10.4 °C 1008.4 hPa NNW 13.4 km/h 18.5 km/h 59 % 0 mm
09:28 18.6 °C 10.4 °C 1008.4 hPa North 13.4 km/h 18.5 km/h 59 % 0 mm
09:29 18.6 °C 10.4 °C 1008.4 hPa NNW 9.5 km/h 14.8 km/h 59 % 0 mm
09:34 18.6 °C 10.4 °C 1008.4 hPa NW 12.9 km/h 18.5 km/h 59 % 0 mm
09:37 18.6 °C 10.7 °C 1008.4 hPa NW 11.7 km/h 24.1 km/h 60 % 0 mm
09:42 18.5 °C 10.6 °C 1008.7 hPa North 13.5 km/h 24.1 km/h 60 % 0 mm
09:47 18.2 °C 10.6 °C 1008.4 hPa NNW 16.1 km/h 24.1 km/h 61 % 0 mm
09:49 18.2 °C 10.8 °C 1008.4 hPa North 9.5 km/h 16.7 km/h 62 % 0 mm
09:54 18.3 °C 11.2 °C 1008.7 hPa North 12.6 km/h 18.5 km/h 63 % 0 mm
09:59 18.6 °C 11.1 °C 1008.4 hPa NNW 9.2 km/h 16.7 km/h 62 % 0 mm
10:03 18.7 °C 11.1 °C 1008.7 hPa North 10.8 km/h 16.7 km/h 61 % 0 mm
10:08 18.7 °C 11.1 °C 1008.4 hPa NNW 14.2 km/h 20.4 km/h 61 % 0 mm
10:12 18.6 °C 11.1 °C 1008.7 hPa North 10 km/h 18.5 km/h 62 % 0 mm
10:17 18.7 °C 11.3 °C 1008.7 hPa NNW 8.2 km/h 14.8 km/h 62 % 0 mm
10:25 19 °C 11.3 °C 1008.7 hPa North 11.7 km/h 14.8 km/h 61 % 0 mm
10:30 19.3 °C 11.3 °C 1008.4 hPa NNW 9.2 km/h 14.5 km/h 60 % 0 mm
10:35 19.4 °C 10.9 °C 1008.4 hPa NNW 9.5 km/h 12.9 km/h 58 % 0 mm
10:40 19.6 °C 10.8 °C 1008.7 hPa NW 11.9 km/h 18.5 km/h 57 % 0 mm
10:49 20.3 °C 10.7 °C 1008.4 hPa North 11.1 km/h 20.4 km/h 54 % 0 mm
10:54 20.2 °C 9.8 °C 1008.4 hPa WNW 18.7 km/h 27.8 km/h 51 % 0 mm
10:56 20.3 °C 9.2 °C 1008.4 hPa WNW 14.6 km/h 29.6 km/h 49 % 0 mm
11:01 20.4 °C 9 °C 1008.7 hPa North 19.2 km/h 29.6 km/h 48 % 0 mm
11:06 20.6 °C 9.5 °C 1008.4 hPa West 14.3 km/h 18.5 km/h 49 % 0 mm
11:11 20.8 °C 9.9 °C 1008.7 hPa NW 10.3 km/h 18.5 km/h 50 % 0 mm
11:12 20.9 °C 9.8 °C 1008.7 hPa North 9 km/h 11.1 km/h 49 % 0 mm
11:17 20.9 °C 10.1 °C 1008.7 hPa West 9.7 km/h 22.5 km/h 50 % 0 mm
11:22 20.8 °C 9.1 °C 1008.7 hPa North 23 km/h 29.6 km/h 47 % 0 mm
11:27 20.7 °C 9 °C 1008.4 hPa West 12.9 km/h 20.4 km/h 47 % 0 mm
11:32 20.8 °C 8.8 °C 1008.4 hPa West 16.4 km/h 20.4 km/h 46 % 0 mm
11:34 20.8 °C 9.4 °C 1008.4 hPa North 15.3 km/h 18.5 km/h 48 % 0 mm
11:39 21.1 °C 9.7 °C 1008.4 hPa West 12.2 km/h 18.5 km/h 48 % 0 mm
11:44 21.4 °C 8.9 °C 1008.4 hPa North 14.6 km/h 20.9 km/h 45 % 0 mm
11:49 21 °C 8.6 °C 1008.4 hPa West 20 km/h 25.9 km/h 45 % 0 mm
11:54 21.1 °C 9.3 °C 1008.4 hPa North 15.8 km/h 20.4 km/h 47 % 0 mm
11:59 21.1 °C 9.1 °C 1008.4 hPa West 21.6 km/h 29.6 km/h 46 % 0 mm
12:02 21.1 °C 9.3 °C 1008.4 hPa WNW 17.2 km/h 22.2 km/h 47 % 0 mm
12:07 21.2 °C 9.1 °C 1008.4 hPa NW 10.6 km/h 13 km/h 46 % 0 mm
12:09 21.3 °C 9.5 °C 1008.4 hPa WNW 11.6 km/h 20.9 km/h 47 % 0 mm
12:14 21.4 °C 9.3 °C 1008.4 hPa WNW 16.6 km/h 31.5 km/h 46 % 0 mm
12:19 21.2 °C 9.4 °C 1008.4 hPa WNW 16.1 km/h 24.1 km/h 47 % 0 mm
12:21 21.2 °C 9.1 °C 1008.4 hPa North 19 km/h 25.9 km/h 46 % 0 mm
12:25 21.1 °C 8.7 °C 1008.4 hPa West 20.3 km/h 25.9 km/h 45 % 0 mm
12:30 21.6 °C 9.4 °C 1008.4 hPa West 18.2 km/h 25.9 km/h 46 % 0 mm
12:31 21.6 °C 9.5 °C 1008.4 hPa North 17.4 km/h 20.4 km/h 46 % 0 mm
12:36 21.6 °C 9.1 °C 1008.4 hPa WNW 12.9 km/h 18.5 km/h 45 % 0 mm
12:41 21.7 °C 9.2 °C 1008.4 hPa WNW 16.1 km/h 20.4 km/h 45 % 0 mm
12:42 21.6 °C 9.2 °C 1008.4 hPa NW 23.2 km/h 31.5 km/h 45 % 0 mm
12:46 21.3 °C 9.2 °C 1008 hPa WNW 15 km/h 22.2 km/h 46 % 0 mm
12:51 21.5 °C 9.4 °C 1008 hPa West 21.9 km/h 24.1 km/h 46 % 0 mm
12:56 21.6 °C 9.5 °C 1008 hPa WNW 17.5 km/h 25.9 km/h 46 % 0 mm
12:57 21.6 °C 9.4 °C 1008 hPa West 15.3 km/h 20.4 km/h 46 % 0 mm
13:02 21.7 °C 9.8 °C 1007.7 hPa North 10 km/h 20.4 km/h 47 % 0 mm
13:03 21.7 °C 9.9 °C 1007.7 hPa NW 10.1 km/h 20.4 km/h 47 % 0 mm
13:08 21.8 °C 9.7 °C 1008 hPa WNW 11.3 km/h 18.5 km/h 46 % 0 mm
13:13 21.7 °C 9.8 °C 1008 hPa North 6.4 km/h 18.5 km/h 47 % 0 mm
13:14 21.7 °C 9.8 °C 1008 hPa WNW 9.7 km/h 13 km/h 47 % 0 mm
13:19 22 °C 9.8 °C 1007.7 hPa NW 10.3 km/h 16.1 km/h 46 % 0 mm
13:24 22.2 °C 9.7 °C 1007.7 hPa WNW 11.7 km/h 14.8 km/h 45 % 0 mm
13:29 22.2 °C 9.7 °C 1007.7 hPa NW 18.3 km/h 31.5 km/h 45 % 0 mm
13:32 22.2 °C 9.7 °C 1007.7 hPa West 22 km/h 27.8 km/h 45 % 0 mm
13:34 22.1 °C 9.6 °C 1007.7 hPa WNW 23.5 km/h 27.8 km/h 45 % 0 mm
13:39 22.1 °C 9.9 °C 1007.7 hPa NW 6.8 km/h 9.3 km/h 46 % 0 mm
13:41 22.1 °C 9.6 °C 1007.3 hPa WNW 5.6 km/h 13 km/h 45 % 0 mm
13:46 22.5 °C 9.3 °C 1007.7 hPa North 20 km/h 25.9 km/h 43 % 0 mm
13:51 22.5 °C 9.6 °C 1007.3 hPa WNW 16.9 km/h 25.7 km/h 44 % 0 mm
13:56 22.4 °C 9.2 °C 1007.3 hPa West 21.2 km/h 24.1 km/h 43 % 0 mm
14:02 22.7 °C 9.8 °C 1007.3 hPa NW 12.9 km/h 16.7 km/h 44 % 0 mm
14:07 22.6 °C 10.1 °C 1007.3 hPa West 12.9 km/h 18.5 km/h 45 % 0 mm
14:12 22.6 °C 9.3 °C 1007.3 hPa WNW 24.1 km/h 27.8 km/h 43 % 0 mm
14:14 22.5 °C 8.9 °C 1007.3 hPa North 16.7 km/h 31.5 km/h 42 % 0 mm
14:19 22.4 °C 9.2 °C 1007.3 hPa NNW 10.1 km/h 14.8 km/h 43 % 0 mm
14:24 23 °C 9.4 °C 1007.3 hPa WNW 12.9 km/h 14.5 km/h 42 % 0 mm
14:29 22.8 °C 9.2 °C 1007.3 hPa West 22.7 km/h 27.8 km/h 42 % 0 mm
14:34 22.6 °C 9.1 °C 1007.3 hPa West 10.3 km/h 18.5 km/h 42 % 0 mm
14:36 22.7 °C 9.1 °C 1007.3 hPa North 14.5 km/h 16.7 km/h 42 % 0 mm
14:41 22.7 °C 9.1 °C 1007.3 hPa WNW 15.3 km/h 18.5 km/h 42 % 0 mm
14:46 22.6 °C 9.4 °C 1007.3 hPa WNW 6.3 km/h 11.3 km/h 43 % 0 mm
14:49 22.8 °C 9.6 °C 1007.3 hPa WNW 11.4 km/h 16.7 km/h 43 % 0 mm
14:53 23.1 °C 9.5 °C 1007.3 hPa North 15.1 km/h 18.5 km/h 42 % 0 mm
14:55 23.1 °C 9.4 °C 1007.3 hPa North 17.1 km/h 22.2 km/h 42 % 0 mm
14:58 23 °C 9.1 °C 1007.3 hPa WNW 17.9 km/h 27.8 km/h 41 % 0 mm
15:03 22.9 °C 8.6 °C 1007.3 hPa WNW 12.7 km/h 18.5 km/h 40 % 0 mm
15:06 22.9 °C 9 °C 1007.3 hPa NW 13.5 km/h 22.2 km/h 41 % 0 mm
15:11 22.9 °C 9.3 °C 1007.3 hPa NW 12.4 km/h 18.5 km/h 42 % 0 mm
15:16 22.7 °C 8.8 °C 1007.3 hPa West 17.5 km/h 24.1 km/h 41 % 0 mm
15:21 22.9 °C 8.6 °C 1007.3 hPa WNW 15.6 km/h 25.7 km/h 40 % 0 mm
15:25 22.9 °C 8.9 °C 1007.3 hPa West 18.2 km/h 25.9 km/h 41 % 0 mm
15:28 22.8 °C 8.9 °C 1007.3 hPa WNW 15 km/h 18.5 km/h 41 % 0 mm
15:30 22.8 °C 9.2 °C 1007.3 hPa WNW 14.8 km/h 18.5 km/h 42 % 0 mm
15:31 22.7 °C 9.2 °C 1007.3 hPa NW 14.6 km/h 16.7 km/h 42 % 0 mm
15:32 22.7 °C 9.2 °C 1007.3 hPa NW 15.8 km/h 16.7 km/h 42 % 0 mm
15:35 22.6 °C 9.1 °C 1007.3 hPa WNW 9 km/h 13 km/h 42 % 0 mm
15:40 23.1 °C 9.1 °C 1007.3 hPa NW 9.3 km/h 22.2 km/h 41 % 0 mm
15:41 23.2 °C 9.2 °C 1007.3 hPa NW 10.3 km/h 16.7 km/h 41 % 0 mm
15:46 22.9 °C 8.9 °C 1007.3 hPa NW 9.3 km/h 16.7 km/h 41 % 0 mm
15:49 22.9 °C 9 °C 1007.3 hPa NNW 18.2 km/h 24.1 km/h 41 % 0 mm
15:52 22.9 °C 8.6 °C 1007.3 hPa NW 18.8 km/h 27.8 km/h 40 % 0 mm
15:57 22.7 °C 8.8 °C 1007.3 hPa WNW 11.1 km/h 16.7 km/h 41 % 0 mm
15:58 22.7 °C 8.8 °C 1007.3 hPa WNW 13.7 km/h 17.7 km/h 41 % 0 mm
16:03 22.7 °C 8.4 °C 1007.3 hPa North 16.4 km/h 20.4 km/h 40 % 0 mm
16:08 22.8 °C 8.9 °C 1007.3 hPa West 11.9 km/h 18.5 km/h 41 % 0 mm
16:13 23 °C 8.7 °C 1007.3 hPa NW 12.9 km/h 16.7 km/h 40 % 0 mm
16:18 22.9 °C 8.6 °C 1007.3 hPa NW 15.6 km/h 19.3 km/h 40 % 0 mm
16:23 22.6 °C 7.9 °C 1007.3 hPa West 14.2 km/h 25.9 km/h 39 % 0 mm
16:28 22.7 °C 8.4 °C 1007.3 hPa NW 15.1 km/h 20.4 km/h 40 % 0 mm
16:33 22.7 °C 8.4 °C 1007.3 hPa North 14.5 km/h 24.1 km/h 40 % 0 mm
16:34 22.6 °C 8.3 °C 1007.3 hPa WNW 12.1 km/h 18.5 km/h 40 % 0 mm
16:38 22.6 °C 8.3 °C 1007.3 hPa West 12.4 km/h 18.5 km/h 40 % 0 mm
16:41 22.6 °C 8.3 °C 1007.3 hPa WNW 18.5 km/h 22.2 km/h 40 % 0 mm
16:43 22.6 °C 8.3 °C 1007.3 hPa WNW 10.5 km/h 16.7 km/h 40 % 0 mm
16:48 22.6 °C 8.3 °C 1007.3 hPa NW 15.1 km/h 20.4 km/h 40 % 0 mm
16:53 22.5 °C 8.2 °C 1007.3 hPa WNW 14 km/h 18.5 km/h 40 % 0 mm
16:57 22.4 °C 8.2 °C 1007.3 hPa WNW 13.5 km/h 16.7 km/h 40 % 0 mm
17:02 22.4 °C 8.1 °C 1007.7 hPa NW 16.4 km/h 27.8 km/h 40 % 0 mm
17:07 22.1 °C 8.2 °C 1007.7 hPa North 17.4 km/h 24.1 km/h 41 % 0 mm
17:10 22 °C 8.5 °C 1007.7 hPa WNW 14.2 km/h 18.5 km/h 42 % 0 mm
17:15 21.9 °C 8.4 °C 1007.7 hPa WNW 7.7 km/h 11.1 km/h 42 % 0 mm
17:20 21.9 °C 8.7 °C 1007.7 hPa WNW 9.7 km/h 18.5 km/h 43 % 0 mm
17:22 21.8 °C 8.3 °C 1007.7 hPa NW 15 km/h 20.4 km/h 42 % 0 mm
17:23 21.8 °C 8.7 °C 1007.7 hPa WNW 13 km/h 16.7 km/h 43 % 0 mm
17:27 21.7 °C 8.6 °C 1007.7 hPa West 15.6 km/h 16.7 km/h 43 % 0 mm
17:32 21.6 °C 8.4 °C 1007.7 hPa West 8.7 km/h 13 km/h 43 % 0 mm
17:34 21.6 °C 8.4 °C 1007.7 hPa North 7.9 km/h 11.1 km/h 43 % 0 mm
17:39 21.4 °C 8.3 °C 1007.7 hPa WNW 6.6 km/h 11.1 km/h 43 % 0 mm
17:40 21.3 °C 8.2 °C 1007.7 hPa North 7.7 km/h 9.7 km/h 43 % 0 mm
17:45 21.1 °C 8.4 °C 1008 hPa WNW 11.6 km/h 18.5 km/h 44 % 0 mm
17:46 21.1 °C 8.4 °C 1008 hPa WNW 11.7 km/h 18.5 km/h 44 % 0 mm
17:51 20.9 °C 8.2 °C 1008 hPa WNW 10.6 km/h 16.7 km/h 44 % 0 mm
17:52 20.8 °C 8.4 °C 1008 hPa WNW 7.2 km/h 14.8 km/h 45 % 0 mm
17:57 20.6 °C 8.3 °C 1008 hPa WNW 8 km/h 14.8 km/h 45 % 0 mm
18:02 20.4 °C 8.1 °C 1008 hPa North 7.1 km/h 14.8 km/h 45 % 0 mm
18:07 20.4 °C 8.4 °C 1008 hPa WNW 9.5 km/h 16.7 km/h 46 % 0 mm
18:27 19.9 °C 8.6 °C 1008.4 hPa North 11.1 km/h 11.3 km/h 48 % 0 mm
18:32 19.9 °C 8.6 °C 1008.4 hPa WNW 6.9 km/h 9.3 km/h 48 % 0 mm
18:37 19.8 °C 8.8 °C 1008.7 hPa WNW 6.6 km/h 11.1 km/h 49 % 0 mm
18:40 19.7 °C 8.7 °C 1008.7 hPa WNW 6.9 km/h 11.1 km/h 49 % 0 mm
18:45 19.6 °C 8.6 °C 1008.7 hPa WNW 8 km/h 11.1 km/h 49 % 0 mm
18:46 19.6 °C 8.6 °C 1008.7 hPa WNW 7.6 km/h 11.3 km/h 49 % 0 mm
18:49 19.5 °C 8.5 °C 1009 hPa WNW 6.8 km/h 9.3 km/h 49 % 0 mm
18:54 19.4 °C 8.2 °C 1008.7 hPa WNW 5.3 km/h 9.3 km/h 48 % 0 mm
18:59 19.3 °C 8.3 °C 1009 hPa WNW 6.8 km/h 12.9 km/h 49 % 0 mm
19:00 19.3 °C 8.3 °C 1009 hPa North 7.6 km/h 12.9 km/h 49 % 0 mm
19:05 19.2 °C 8.2 °C 1009 hPa WNW 7.4 km/h 9.3 km/h 49 % 0 mm
19:10 19.1 °C 8.1 °C 1009 hPa North 6.1 km/h 8 km/h 49 % 0 mm
19:15 19 °C 8.1 °C 1009 hPa WNW 8 km/h 11.3 km/h 49 % 0 mm
19:20 19 °C 8.1 °C 1009 hPa WNW 10 km/h 13 km/h 49 % 0 mm
19:25 19 °C 8.6 °C 1009.4 hPa SSW 9.3 km/h 14.5 km/h 51 % 0 mm
19:28 18.7 °C 9.8 °C 1009.4 hPa SSW 9.3 km/h 14.8 km/h 56 % 0 mm
19:33 18.1 °C 10.4 °C 1009.4 hPa SSW 7.2 km/h 11.1 km/h 61 % 0 mm
19:36 17.9 °C 10.7 °C 1009.4 hPa SSW 6.3 km/h 9.7 km/h 63 % 0 mm
19:41 17.4 °C 10.5 °C 1009.7 hPa North 11.7 km/h 16.7 km/h 64 % 0 mm
19:46 16.7 °C 10.3 °C 1009.7 hPa South 6.9 km/h 13 km/h 66 % 0 mm
19:51 16.3 °C 10.4 °C 1009.7 hPa South 3.9 km/h 6.4 km/h 68 % 0 mm
19:54 16.2 °C 10.3 °C 1009.7 hPa South 7.7 km/h 9.3 km/h 68 % 0 mm
19:59 15.9 °C 10.2 °C 1009.7 hPa South 5.1 km/h 11.1 km/h 69 % 0 mm
20:04 15.6 °C 10.1 °C 1009.7 hPa South 7.1 km/h 9.3 km/h 70 % 0 mm
20:09 15.3 °C 10.1 °C 1009.7 hPa SSE 6.3 km/h 9.3 km/h 71 % 0 mm
20:11 15.2 °C 10 °C 1009.7 hPa SSE 1.3 km/h 3.7 km/h 71 % 0 mm
20:12 15.1 °C 10.1 °C 1010 hPa SSE 5.5 km/h 11.1 km/h 72 % 0 mm
20:13 15.1 °C 10.1 °C 1010 hPa SSE 2.6 km/h 9.3 km/h 72 % 0 mm
20:14 15.1 °C 10.1 °C 1010 hPa SSE 2.9 km/h 5.6 km/h 72 % 0 mm
20:15 15.1 °C 10.1 °C 1010 hPa South 2.9 km/h 6.4 km/h 72 % 0 mm
20:16 15 °C 10 °C 1010 hPa SSE 5 km/h 5.6 km/h 72 % 0 mm
20:17 14.9 °C 9.9 °C 1010 hPa SSE 2.4 km/h 5.6 km/h 72 % 0 mm
20:18 14.9 °C 9.9 °C 1010 hPa South 0.5 km/h 1.9 km/h 72 % 0 mm
20:19 14.8 °C 10.1 °C 1010 hPa South 3.2 km/h 5.6 km/h 73 % 0 mm
20:20 14.8 °C 10.1 °C 1010.4 hPa SSE 1.3 km/h 3.7 km/h 73 % 0 mm
20:21 14.8 °C 10.1 °C 1010 hPa SSE 1.6 km/h 3.7 km/h 73 % 0 mm
20:22 14.8 °C 10 °C 1010 hPa SSE 1.1 km/h 3.7 km/h 73 % 0 mm
20:23 14.7 °C 9.9 °C 1010 hPa SSE 1.1 km/h 3.7 km/h 73 % 0 mm
20:26 14.6 °C 9.8 °C 1010 hPa SSE 0.8 km/h 3.7 km/h 73 % 0 mm
20:27 14.6 °C 9.8 °C 1010 hPa SSE 1.1 km/h 3.7 km/h 73 % 0 mm
20:32 14.4 °C 9.8 °C 1010 hPa SSE 2.4 km/h 5.6 km/h 74 % 0 mm
20:34 14.3 °C 9.7 °C 1010.4 hPa SSE 5.3 km/h 7.4 km/h 74 % 0 mm
20:42 14.1 °C 9.9 °C 1010.4 hPa SSE 4.7 km/h 9.3 km/h 76 % 0 mm
20:47 13.9 °C 10 °C 1010.4 hPa SSE 4.7 km/h 6.4 km/h 77 % 0 mm
20:50 13.9 °C 9.9 °C 1010.4 hPa SSE 3.1 km/h 5.6 km/h 77 % 0 mm
20:55 13.8 °C 9.8 °C 1010.4 hPa SSE 1.1 km/h 3.7 km/h 77 % 0 mm
20:57 13.7 °C 9.8 °C 1010.4 hPa SSE 1.4 km/h 3.7 km/h 77 % 0 mm
21:02 13.6 °C 9.8 °C 1010.4 hPa SSE 5 km/h 7.4 km/h 78 % 0 mm
21:03 13.6 °C 9.8 °C 1010.4 hPa SSE 6.1 km/h 9.3 km/h 78 % 0 mm
21:08 13.5 °C 9.9 °C 1010.4 hPa North 4.5 km/h 7.4 km/h 79 % 0 mm
21:09 13.5 °C 9.9 °C 1010.4 hPa SSE 1.4 km/h 6.4 km/h 79 % 0 mm
21:14 13.3 °C 9.8 °C 1010.4 hPa SSE 4.3 km/h 5.6 km/h 79 % 0 mm
21:19 13.3 °C 9.7 °C 1010.4 hPa North 1 km/h 3.7 km/h 79 % 0 mm
21:22 13.2 °C 9.8 °C 1010.4 hPa Calm     80 % 0 mm
21:27 13.1 °C 9.7 °C 1010.4 hPa North 1.8 km/h 3.7 km/h 80 % 0 mm
21:32 13 °C 9.6 °C 1010.4 hPa North 2.9 km/h 7.4 km/h 80 % 0 mm
21:37 12.8 °C 9.7 °C 1010 hPa SSE 1.1 km/h 3.7 km/h 81 % 0 mm
21:42 12.7 °C 9.6 °C 1010.4 hPa SSE 2.6 km/h 6.4 km/h 81 % 0 mm
21:47 12.7 °C 9.7 °C 1010.4 hPa North 1.1 km/h 5.6 km/h 82 % 0 mm
21:52 12.6 °C 9.6 °C 1010 hPa SSE 0.2 km/h 1.9 km/h 82 % 0 mm
21:57 12.4 °C 9.6 °C 1010 hPa North 1.4 km/h 3.7 km/h 83 % 0 mm
22:02 12.3 °C 9.5 °C 1010 hPa SSE 3.9 km/h 5.6 km/h 83 % 0 mm
22:03 12.3 °C 9.5 °C 1010 hPa SSE 3.9 km/h 5.6 km/h 83 % 0 mm
22:08 12.2 °C 9.6 °C 1010 hPa SSE 2.4 km/h 3.7 km/h 84 % 0 mm
22:12 12.2 °C 9.6 °C 1010 hPa Calm     84 % 0 mm
22:17 12.1 °C 9.4 °C 1010 hPa Calm     84 % 0 mm
22:22 12 °C 9.4 °C 1010 hPa North 2.7 km/h 5.6 km/h 84 % 0 mm
22:26 11.9 °C 9.5 °C 1010 hPa North 3.2 km/h 5.6 km/h 85 % 0 mm
22:31 11.9 °C 9.4 °C 1010 hPa Calm     85 % 0 mm
22:36 11.8 °C 9.4 °C 1010 hPa SSE 4.3 km/h 5.6 km/h 85 % 0 mm
22:44 11.8 °C 9.5 °C 1010 hPa North 2.4 km/h 5.6 km/h 86 % 0 mm
22:49 11.7 °C 9.4 °C 1010 hPa North 1.9 km/h 5.6 km/h 86 % 0 mm
22:57 11.6 °C 9.3 °C 1010 hPa SSE 2.4 km/h 3.7 km/h 86 % 0 mm
23:02 11.6 °C 9.3 °C 1010 hPa North 3.2 km/h 5.6 km/h 86 % 0 mm
23:07 11.5 °C 9.4 °C 1010 hPa SSE 1.6 km/h 3.7 km/h 87 % 0 mm
23:12 11.4 °C 9.3 °C 1009.7 hPa SSE 2.1 km/h 5.6 km/h 87 % 0 mm
23:16 11.4 °C 9.3 °C 1009.7 hPa Calm     87 % 0 mm
23:21 11.4 °C 9.3 °C 1009.7 hPa Calm     87 % 0 mm
23:26 11.3 °C 9.2 °C 1009.7 hPa Calm     87 % 0 mm
23:31 11.2 °C 9.1 °C 1009.7 hPa Calm     87 % 0 mm
23:35 11.2 °C 9.3 °C 1009.4 hPa Calm     88 % 0 mm
23:40 11 °C 9.1 °C 1009.4 hPa Calm     88 % 0 mm
23:45 10.9 °C 9.1 °C 1009.4 hPa Calm     88 % 0 mm
23:48 10.9 °C 9.1 °C 1009.4 hPa Calm     88 % 0 mm
23:53 10.9 °C 9.2 °C 1009 hPa Calm     89 % 0 mm
23:58 10.8 °C 9.1 °C 1009 hPa Calm     89 % 0 mm
Ararat Weather
Compliments of Weather Underground - 2.75 mb
Click here to send mail.


ABOUT

Live weather data from Ararat, Victoria, Australia, 3377
Data uploaded from Cumulus every 5 minutes to Weather Underground.
This site then downloads the raw data for formatting and display.
Metric and imperial data can be displayed. Graphs and historical data available.
Includes Sun and Moon times and rain image live from BOM.

Check out Ararat Weather on Facebook, Twitter and Google +

Help support ongoing costs by checking out the ads





Follow @AraratWeather